createdAt,value
2017-07-30T00:03:41.632Z,21.58
2017-07-30T00:08:37.813Z,21.57
2017-07-30T00:13:34.808Z,21.57
2017-07-30T00:18:30.429Z,21.57
2017-07-30T00:23:28.442Z,21.67
2017-07-30T00:28:24.264Z,21.60
2017-07-30T00:33:21.378Z,21.60
2017-07-30T00:38:18.322Z,21.83
2017-07-30T00:43:15.358Z,22.02
2017-07-30T00:48:11.135Z,21.95
2017-07-30T00:53:06.983Z,21.95
2017-07-30T00:58:02.840Z,21.75
2017-07-30T01:02:59.719Z,21.69
2017-07-30T01:07:56.801Z,21.66
2017-07-30T01:12:53.149Z,21.57
2017-07-30T01:17:50.416Z,21.55
2017-07-30T01:22:47.629Z,21.45
2017-07-30T01:27:44.030Z,21.42
2017-07-30T01:32:39.952Z,21.35
2017-07-30T01:37:36.272Z,21.32
2017-07-30T01:42:33.438Z,21.14
2017-07-30T01:47:29.293Z,20.97
2017-07-30T01:52:26.649Z,20.97
2017-07-30T01:57:23.959Z,20.97
2017-07-30T02:02:20.058Z,21.00
2017-07-30T02:07:16.924Z,21.06
2017-07-30T02:12:14.530Z,21.21
2017-07-30T02:17:12.375Z,21.21
2017-07-30T02:22:08.421Z,21.27
2017-07-30T02:27:04.551Z,21.33
2017-07-30T02:32:05.732Z,21.35
2017-07-30T02:37:02.667Z,21.25
2017-07-30T02:41:59.290Z,21.35
2017-07-30T02:46:56.188Z,21.24
2017-07-30T02:51:52.772Z,21.30
2017-07-30T02:56:49.605Z,21.25
2017-07-30T03:01:46.389Z,21.25
2017-07-30T03:06:42.532Z,21.29
2017-07-30T03:11:39.694Z,21.27
2017-07-30T03:16:35.430Z,21.30
2017-07-30T03:21:33.300Z,21.30
2017-07-30T03:26:28.938Z,21.24
2017-07-30T03:31:25.193Z,21.22
2017-07-30T03:36:23.136Z,21.20
2017-07-30T03:41:19.108Z,21.21
2017-07-30T03:46:15.227Z,21.22
2017-07-30T03:51:12.619Z,21.20
2017-07-30T03:56:08.557Z,21.22
2017-07-30T04:01:04.773Z,21.21
2017-07-30T04:06:00.668Z,21.15
2017-07-30T04:10:56.851Z,21.15
2017-07-30T04:15:52.890Z,21.27
2017-07-30T04:20:50.194Z,21.18
2017-07-30T04:25:46.840Z,21.22
2017-07-30T04:30:42.538Z,21.27
2017-07-30T04:35:38.989Z,21.29
2017-07-30T04:40:35.074Z,21.30
2017-07-30T04:45:33.148Z,21.36
2017-07-30T04:50:30.007Z,21.29
2017-07-30T04:55:27.081Z,21.35
2017-07-30T05:00:22.905Z,21.33
2017-07-30T05:05:20.551Z,21.48
2017-07-30T05:10:16.215Z,21.52
2017-07-30T05:15:12.493Z,21.55
2017-07-30T05:20:10.946Z,21.76
2017-07-30T05:25:07.014Z,21.77
2017-07-30T05:30:04.471Z,21.83
2017-07-30T05:35:00.457Z,22.02
2017-07-30T05:39:56.395Z,22.08
2017-07-30T05:44:52.488Z,22.10
2017-07-30T05:49:50.099Z,22.15
2017-07-30T05:54:46.105Z,22.26
2017-07-30T05:59:43.986Z,22.43
2017-07-30T06:04:40.529Z,22.43
2017-07-30T06:09:36.615Z,22.53
2017-07-30T06:14:34.358Z,22.75
2017-07-30T06:19:31.545Z,22.80
2017-07-30T06:24:27.463Z,22.94
2017-07-30T06:29:23.976Z,23.13
2017-07-30T06:34:20.109Z,23.25
2017-07-30T06:39:17.901Z,23.25
2017-07-30T06:44:14.656Z,23.24
2017-07-30T06:49:11.046Z,23.50
2017-07-30T06:54:07.125Z,23.71
2017-07-30T06:59:03.127Z,23.77
2017-07-30T07:04:00.347Z,23.88
2017-07-30T07:08:56.725Z,24.03
2017-07-30T07:13:52.989Z,23.93
2017-07-30T07:18:49.100Z,24.02
2017-07-30T07:23:45.331Z,24.08
2017-07-30T07:28:42.293Z,24.06
2017-07-30T07:33:40.010Z,24.02
2017-07-30T07:38:36.630Z,24.11
2017-07-30T07:43:32.681Z,24.20
2017-07-30T07:48:28.902Z,24.26
2017-07-30T07:53:25.188Z,24.26
2017-07-30T07:58:21.556Z,24.39
2017-07-30T08:03:17.493Z,24.26
2017-07-30T08:08:13.899Z,24.38
2017-07-30T08:13:11.480Z,24.42
2017-07-30T08:18:07.899Z,24.80
2017-07-30T08:23:04.830Z,24.47
2017-07-30T08:28:00.850Z,24.26
2017-07-30T08:32:57.090Z,24.08
2017-07-30T08:37:53.136Z,24.11
2017-07-30T08:42:49.283Z,24.30
2017-07-30T08:47:46.620Z,24.48
2017-07-30T08:52:43.156Z,24.33
2017-07-30T08:57:40.728Z,24.96
2017-07-30T09:02:37.716Z,24.89
2017-07-30T09:07:34.576Z,24.76
2017-07-30T09:12:31.538Z,24.47
2017-07-30T09:17:26.927Z,24.30
2017-07-30T09:22:22.557Z,24.13
2017-07-30T09:27:18.905Z,24.10
2017-07-30T09:32:16.894Z,24.29
2017-07-30T09:37:12.757Z,24.48
2017-07-30T09:42:10.654Z,24.93
2017-07-30T09:47:08.613Z,25.51
2017-07-30T09:52:06.293Z,26.06
2017-07-30T09:57:06.066Z,26.26
2017-07-30T10:02:01.681Z,25.91
2017-07-30T10:06:57.113Z,25.33
2017-07-30T10:11:52.093Z,25.51
2017-07-30T10:16:48.565Z,25.28
2017-07-30T10:21:43.977Z,25.21
2017-07-30T10:26:40.471Z,25.46
2017-07-30T10:31:37.262Z,25.66
2017-07-30T10:36:35.713Z,25.65
2017-07-30T10:41:33.289Z,25.80
2017-07-30T10:46:28.095Z,25.65
2017-07-30T10:51:24.400Z,25.78
2017-07-30T10:56:21.760Z,25.85
2017-07-30T11:01:18.583Z,26.02
2017-07-30T11:06:16.452Z,26.16
2017-07-30T11:11:12.060Z,26.29
2017-07-30T11:16:08.442Z,26.45
2017-07-30T11:21:06.076Z,26.55
2017-07-30T11:26:01.430Z,26.44
2017-07-30T11:30:57.223Z,26.31
2017-07-30T11:35:53.804Z,26.16
2017-07-30T11:40:50.779Z,26.40
2017-07-30T11:45:49.080Z,26.95
2017-07-30T11:50:47.669Z,26.97
2017-07-30T11:55:45.355Z,27.15
2017-07-30T12:00:43.007Z,27.30
2017-07-30T12:05:41.225Z,27.40
2017-07-30T12:10:37.243Z,27.39
2017-07-30T12:15:31.268Z,27.37
2017-07-30T12:20:26.147Z,27.33
2017-07-30T12:25:20.572Z,26.85
2017-07-30T12:30:16.152Z,26.68
2017-07-30T12:35:12.355Z,26.74
2017-07-30T12:40:10.361Z,26.70
2017-07-30T12:45:05.541Z,26.45
2017-07-30T12:50:01.856Z,26.41
2017-07-30T12:54:58.206Z,26.66
2017-07-30T12:59:53.331Z,26.59
2017-07-30T13:04:49.651Z,26.48
2017-07-30T13:09:45.892Z,26.34
2017-07-30T13:14:43.332Z,26.62
2017-07-30T13:19:38.918Z,26.47
2017-07-30T13:24:35.771Z,26.62
2017-07-30T13:29:33.095Z,27.22
2017-07-30T13:34:30.066Z,26.92
2017-07-30T13:39:27.197Z,27.08
2017-07-30T13:44:23.093Z,27.12
2017-07-30T13:49:19.435Z,26.73
2017-07-30T13:54:14.255Z,26.36
2017-07-30T13:59:09.157Z,26.02
2017-07-30T14:04:04.839Z,25.98
2017-07-30T14:09:01.943Z,25.90
2017-07-30T14:13:57.941Z,25.91
2017-07-30T14:23:54.579Z,26.34
2017-07-30T14:28:50.577Z,25.88
2017-07-30T14:33:46.273Z,25.69
2017-07-30T14:38:41.726Z,25.66
2017-07-30T14:43:38.436Z,25.60
2017-07-30T14:48:34.196Z,25.62
2017-07-30T14:53:30.025Z,25.41
2017-07-30T14:58:26.088Z,25.36
2017-07-30T15:03:22.194Z,25.41
2017-07-30T15:08:18.187Z,25.66
2017-07-30T15:13:13.765Z,25.75
2017-07-30T15:18:09.363Z,25.87
2017-07-30T15:23:05.169Z,25.68
2017-07-30T15:28:02.055Z,25.70
2017-07-30T15:32:57.706Z,25.93
2017-07-30T15:37:56.157Z,25.99
2017-07-30T15:42:53.801Z,25.84
2017-07-30T15:47:50.292Z,25.93
2017-07-30T15:52:46.917Z,26.00
2017-07-30T15:57:43.643Z,25.99
2017-07-30T16:02:40.044Z,25.80
2017-07-30T16:07:35.844Z,25.69
2017-07-30T16:12:32.988Z,25.81
2017-07-30T16:17:28.673Z,25.68
2017-07-30T16:22:25.538Z,25.38
2017-07-30T16:27:21.128Z,25.07
2017-07-30T16:32:18.226Z,24.89
2017-07-30T16:37:13.576Z,24.78
2017-07-30T16:42:10.345Z,24.70
2017-07-30T16:47:08.592Z,24.68
2017-07-30T16:52:04.493Z,24.68
2017-07-30T16:57:01.688Z,24.65
2017-07-30T17:01:57.389Z,24.47
2017-07-30T17:06:53.389Z,24.48
2017-07-30T17:11:50.857Z,24.61
2017-07-30T17:16:46.656Z,24.78
2017-07-30T17:21:42.690Z,24.42
2017-07-30T17:26:39.416Z,24.21
2017-07-30T17:31:34.885Z,24.20
2017-07-30T17:36:30.582Z,23.99
2017-07-30T17:41:27.465Z,23.86
2017-07-30T17:46:22.694Z,23.74
2017-07-30T17:51:19.472Z,23.41
2017-07-30T17:56:15.198Z,23.40
2017-07-30T18:01:12.136Z,23.61
2017-07-30T18:06:08.848Z,23.40
2017-07-30T18:11:05.477Z,23.24
2017-07-30T18:16:01.833Z,23.20
2017-07-30T18:20:57.412Z,23.20
2017-07-30T18:25:53.166Z,23.03
2017-07-30T18:30:49.358Z,22.94
2017-07-30T18:35:45.572Z,22.73
2017-07-30T18:40:41.799Z,22.63
2017-07-30T18:45:37.682Z,22.60
2017-07-30T18:50:33.627Z,22.53
2017-07-30T18:55:29.490Z,22.36
2017-07-30T19:00:25.514Z,22.30
2017-07-30T19:05:23.444Z,22.23
2017-07-30T19:10:20.171Z,22.23
2017-07-30T19:15:16.785Z,22.10
2017-07-30T19:20:13.577Z,22.08
2017-07-30T19:25:08.912Z,21.98
2017-07-30T19:30:05.084Z,21.93
2017-07-30T19:35:00.843Z,21.83
2017-07-30T19:39:56.497Z,21.70
2017-07-30T19:44:52.345Z,21.66
2017-07-30T19:49:50.484Z,21.64
2017-07-30T19:54:45.742Z,21.61
2017-07-30T19:59:41.743Z,21.62
2017-07-30T20:04:37.977Z,21.62
2017-07-30T20:09:33.885Z,21.48
2017-07-30T20:14:30.348Z,21.32
2017-07-30T20:19:26.238Z,21.14
2017-07-30T20:24:22.060Z,21.15
2017-07-30T20:29:19.150Z,21.05
2017-07-30T20:34:15.663Z,21.14
2017-07-30T20:39:11.272Z,21.11
2017-07-30T20:44:09.118Z,20.92
2017-07-30T20:49:04.702Z,21.14
2017-07-30T20:54:02.142Z,20.93
2017-07-30T20:58:58.247Z,20.95
2017-07-30T21:03:55.297Z,20.92
2017-07-30T21:08:52.132Z,20.95
2017-07-30T21:13:47.610Z,20.85
2017-07-30T21:18:44.412Z,20.84
2017-07-30T21:23:40.130Z,20.84
2017-07-30T21:28:36.857Z,20.72
2017-07-30T21:33:32.511Z,20.51
2017-07-30T21:38:29.398Z,20.63
2017-07-30T21:43:25.364Z,20.48
2017-07-30T21:48:22.395Z,20.80
2017-07-30T21:53:19.354Z,20.92
2017-07-30T21:58:14.853Z,20.78
2017-07-30T22:03:10.868Z,20.77
2017-07-30T22:08:07.849Z,20.78
2017-07-30T22:13:04.561Z,20.74
2017-07-30T22:18:00.650Z,20.97
2017-07-30T22:22:58.634Z,20.87
2017-07-30T22:27:53.965Z,21.00
2017-07-30T22:32:51.489Z,20.97
2017-07-30T22:37:47.103Z,20.70
2017-07-30T22:42:44.762Z,20.74
2017-07-30T22:47:41.946Z,20.58
2017-07-30T22:52:38.244Z,20.29
2017-07-30T22:57:34.082Z,20.29
2017-07-30T23:02:30.779Z,20.47
2017-07-30T23:07:26.521Z,20.28
2017-07-30T23:12:23.408Z,19.99
2017-07-30T23:17:18.959Z,19.86
2017-07-30T23:22:15.697Z,19.86
2017-07-30T23:27:12.198Z,19.36
2017-07-30T23:32:08.699Z,19.36
2017-07-30T23:37:05.187Z,19.55
2017-07-30T23:42:00.885Z,19.36
2017-07-30T23:46:57.361Z,19.16
2017-07-30T23:51:53.218Z,19.52
2017-07-30T23:56:50.204Z,19.49
